createdAt,value
2018-05-09T00:00:28.595Z,2.90
2018-05-09T00:02:56.861Z,3.33
2018-05-09T00:05:25.145Z,3.27
2018-05-09T00:07:53.414Z,3.63
2018-05-09T00:10:21.705Z,3.23
2018-05-09T00:12:49.235Z,3.80
2018-05-09T00:15:16.751Z,3.90
2018-05-09T00:17:44.280Z,3.33
2018-05-09T00:20:11.867Z,3.50
2018-05-09T00:22:39.405Z,3.87
2018-05-09T00:25:06.959Z,3.67
2018-05-09T00:27:34.471Z,3.67
2018-05-09T00:30:02.091Z,3.60
2018-05-09T00:32:29.637Z,3.80
2018-05-09T00:34:57.137Z,3.67
2018-05-09T00:37:24.656Z,3.70
2018-05-09T00:39:52.181Z,3.20
2018-05-09T00:42:21.757Z,3.90
2018-05-09T00:44:49.273Z,4.40
2018-05-09T00:47:16.776Z,3.70
2018-05-09T00:49:44.297Z,3.80
2018-05-09T00:52:11.807Z,3.60
2018-05-09T00:54:40.120Z,3.90
2018-05-09T00:57:07.625Z,3.70
2018-05-09T00:59:35.151Z,3.67
2018-05-09T01:02:02.650Z,3.70
2018-05-09T01:04:30.171Z,3.77
2018-05-09T01:06:57.716Z,3.57
2018-05-09T01:09:25.272Z,3.77
2018-05-09T01:11:52.779Z,3.67
2018-05-09T01:14:20.293Z,4.10
2018-05-09T01:16:47.808Z,3.77
2018-05-09T01:19:16.092Z,3.53
2018-05-09T01:21:43.618Z,4.00
2018-05-09T01:24:11.165Z,4.03
2018-05-09T01:26:38.691Z,3.50
2018-05-09T01:29:06.237Z,3.70
2018-05-09T01:31:33.757Z,3.33
2018-05-09T01:34:02.077Z,3.63
2018-05-09T01:36:29.583Z,3.70
2018-05-09T01:38:57.871Z,3.73
2018-05-09T01:41:26.155Z,3.70
2018-05-09T01:43:53.672Z,3.77
2018-05-09T01:46:21.181Z,3.80
2018-05-09T01:48:48.719Z,4.53
2018-05-09T01:51:16.993Z,4.20
2018-05-09T01:53:45.289Z,4.63
2018-05-09T01:56:12.959Z,3.90
2018-05-09T01:58:40.462Z,4.13
2018-05-09T02:01:07.992Z,3.80
2018-05-09T02:03:35.524Z,3.50
2018-05-09T02:06:03.075Z,3.57
2018-05-09T02:08:30.645Z,4.50
2018-05-09T02:10:58.165Z,3.77
2018-05-09T02:13:26.446Z,4.20
2018-05-09T02:15:54.736Z,4.83
2018-05-09T02:18:22.256Z,4.20
2018-05-09T02:20:51.299Z,4.23
2018-05-09T02:23:18.804Z,4.77
2018-05-09T02:25:46.333Z,4.20
2018-05-09T02:28:13.868Z,3.90
2018-05-09T02:30:41.447Z,3.97
2018-05-09T02:33:08.924Z,4.50
2018-05-09T02:35:36.463Z,3.60
2018-05-09T02:38:04.004Z,3.83
2018-05-09T02:40:31.524Z,4.00
2018-05-09T02:42:59.823Z,4.00
2018-05-09T02:45:27.343Z,4.57
2018-05-09T02:47:54.893Z,4.53
2018-05-09T02:50:22.397Z,4.10
2018-05-09T02:52:50.141Z,4.23
2018-05-09T02:55:17.668Z,4.20
2018-05-09T02:57:45.296Z,4.00
2018-05-09T03:00:12.818Z,4.27
2018-05-09T03:02:40.392Z,4.20
2018-05-09T03:05:07.900Z,4.57
2018-05-09T03:07:35.437Z,4.13
2018-05-09T03:10:03.025Z,4.30
2018-05-09T03:12:30.506Z,4.20
2018-05-09T03:14:58.033Z,4.27
2018-05-09T03:17:25.567Z,4.70
2018-05-09T03:19:53.087Z,4.77
2018-05-09T03:22:20.603Z,4.43
2018-05-09T03:24:48.141Z,4.80
2018-05-09T03:27:15.650Z,4.53
2018-05-09T03:29:43.241Z,4.60
2018-05-09T03:32:11.485Z,5.03
2018-05-09T03:34:39.068Z,3.83
2018-05-09T03:37:06.583Z,4.40
2018-05-09T03:39:34.890Z,4.80
2018-05-09T03:42:02.462Z,4.90
2018-05-09T03:44:30.009Z,4.53
2018-05-09T03:46:57.578Z,4.47
2018-05-09T03:49:25.098Z,4.50
2018-05-09T03:51:53.384Z,4.33
2018-05-09T03:54:21.665Z,4.60
2018-05-09T03:56:49.194Z,4.70
2018-05-09T03:59:17.589Z,4.50
2018-05-09T04:01:57.725Z,5.40
2018-05-09T04:04:37.116Z,3.93
2018-05-09T04:07:16.474Z,3.77
2018-05-09T04:09:55.964Z,4.20
2018-05-09T04:12:23.509Z,4.77
2018-05-09T04:14:51.859Z,4.70
2018-05-09T04:17:19.336Z,5.00
2018-05-09T04:19:47.628Z,4.43
2018-05-09T04:22:15.205Z,4.23
2018-05-09T04:24:42.725Z,4.63
2018-05-09T04:27:11.007Z,5.13
2018-05-09T04:29:39.299Z,4.23
2018-05-09T04:32:06.879Z,4.63
2018-05-09T04:34:34.416Z,5.03
2018-05-09T04:37:01.928Z,4.57
2018-05-09T04:39:30.967Z,4.60
2018-05-09T04:41:58.861Z,5.07
2018-05-09T04:44:28.346Z,4.93
2018-05-09T04:46:55.888Z,4.73
2018-05-09T04:49:23.543Z,5.03
2018-05-09T04:51:51.822Z,4.53
2018-05-09T04:54:19.335Z,4.70
2018-05-09T04:56:48.643Z,4.50
2018-05-09T04:59:16.168Z,5.07
2018-05-09T05:01:43.735Z,5.13
2018-05-09T05:04:11.249Z,5.07
2018-05-09T05:06:39.539Z,4.53
2018-05-09T05:09:07.075Z,4.37
2018-05-09T05:11:35.395Z,5.30
2018-05-09T05:14:02.980Z,5.20
2018-05-09T05:16:30.512Z,4.50
2018-05-09T05:18:58.188Z,4.83
2018-05-09T05:21:25.816Z,5.40
2018-05-09T05:23:53.437Z,4.63
2018-05-09T05:26:20.991Z,5.27
2018-05-09T05:28:48.523Z,5.27
2018-05-09T05:31:16.036Z,6.23
2018-05-09T05:33:43.569Z,4.77
2018-05-09T05:36:11.102Z,5.60
2018-05-09T05:38:38.629Z,5.90
2018-05-09T05:41:06.145Z,4.53
2018-05-09T05:43:34.460Z,4.87
2018-05-09T05:46:01.969Z,5.20
2018-05-09T05:48:29.489Z,4.73
2018-05-09T05:50:57.012Z,5.67
2018-05-09T05:53:24.532Z,5.27
2018-05-09T05:55:52.060Z,5.37
2018-05-09T05:58:19.572Z,4.77
2018-05-09T06:00:47.109Z,4.30
2018-05-09T06:03:14.734Z,5.27
2018-05-09T06:05:42.253Z,5.17
2018-05-09T06:08:10.525Z,5.47
2018-05-09T06:10:38.905Z,5.10
2018-05-09T06:13:07.201Z,5.30
2018-05-09T06:15:34.731Z,5.13
2018-05-09T06:18:03.015Z,5.73
2018-05-09T06:20:31.325Z,4.80
2018-05-09T06:22:58.844Z,4.53
2018-05-09T06:25:27.132Z,4.70
2018-05-09T06:27:54.652Z,5.00
2018-05-09T06:30:22.192Z,3.77
2018-05-09T06:32:49.703Z,4.83
2018-05-09T06:35:18.176Z,5.30
2018-05-09T06:37:45.847Z,5.80
2018-05-09T06:40:13.308Z,5.03
2018-05-09T06:42:40.854Z,4.63
2018-05-09T06:45:08.371Z,6.00
2018-05-09T06:47:35.896Z,5.80
2018-05-09T06:50:03.486Z,5.53
2018-05-09T06:52:30.972Z,5.40
2018-05-09T06:54:58.497Z,5.53
2018-05-09T06:57:26.785Z,4.97
2018-05-09T06:59:54.405Z,4.40
2018-05-09T07:02:21.920Z,5.17
2018-05-09T07:04:50.228Z,4.47
2018-05-09T07:07:17.748Z,4.73
2018-05-09T07:09:46.036Z,4.50
2018-05-09T07:12:13.581Z,4.63
2018-05-09T07:14:41.855Z,4.93
2018-05-09T07:17:10.132Z,4.80
2018-05-09T07:19:38.449Z,4.47
2018-05-09T07:22:05.977Z,4.83
2018-05-09T07:24:34.252Z,4.40
2018-05-09T07:27:01.772Z,4.60
2018-05-09T07:29:29.323Z,3.93
2018-05-09T07:31:58.374Z,4.37
2018-05-09T07:34:25.912Z,3.80
2018-05-09T07:36:54.188Z,4.30
2018-05-09T07:39:21.711Z,4.10
2018-05-09T07:41:49.264Z,4.27
2018-05-09T07:44:16.777Z,3.80
2018-05-09T07:46:44.324Z,3.50
2018-05-09T07:49:11.827Z,3.47
2018-05-09T07:51:39.363Z,3.50
2018-05-09T07:54:06.893Z,3.10
2018-05-09T07:56:34.416Z,3.47
2018-05-09T07:59:03.449Z,3.33
2018-05-09T08:01:31.016Z,2.70
2018-05-09T08:03:58.543Z,2.70
2018-05-09T08:06:26.828Z,2.80
2018-05-09T08:08:54.401Z,2.83
2018-05-09T08:11:21.963Z,2.87
2018-05-09T08:13:49.528Z,2.60
2018-05-09T08:16:17.042Z,2.60
2018-05-09T08:18:45.354Z,2.33
2018-05-09T08:21:12.920Z,2.70
2018-05-09T08:23:40.440Z,2.70
2018-05-09T08:26:08.740Z,2.50
2018-05-09T08:28:36.285Z,2.50
2018-05-09T08:31:03.852Z,2.43
2018-05-09T08:33:31.371Z,2.70
2018-05-09T08:35:58.901Z,2.80
2018-05-09T08:38:26.424Z,2.80
2018-05-09T08:40:53.944Z,2.90
2018-05-09T08:43:21.528Z,3.30
2018-05-09T08:45:49.001Z,3.03
2018-05-09T08:48:16.552Z,2.50
2018-05-09T08:50:44.060Z,2.77
2018-05-09T08:53:11.585Z,2.57
2018-05-09T08:55:39.113Z,2.80
2018-05-09T08:58:07.401Z,2.60
2018-05-09T09:00:34.966Z,3.00
2018-05-09T09:03:02.505Z,2.60
2018-05-09T09:05:30.025Z,2.87
2018-05-09T09:07:58.998Z,2.63
2018-05-09T09:10:26.508Z,2.60
2018-05-09T09:12:54.796Z,2.67
2018-05-09T09:15:22.390Z,2.70
2018-05-09T09:17:49.904Z,2.70
2018-05-09T09:20:17.449Z,2.30
2018-05-09T09:22:45.736Z,2.43
2018-05-09T09:25:13.325Z,2.43
2018-05-09T09:27:40.869Z,2.70
2018-05-09T09:30:08.385Z,2.63
2018-05-09T09:32:36.667Z,2.53
2018-05-09T09:35:04.973Z,2.93
2018-05-09T09:37:32.494Z,2.70
2018-05-09T09:40:00.794Z,2.80
2018-05-09T09:42:28.319Z,2.87
2018-05-09T09:44:55.831Z,2.93
2018-05-09T09:47:23.366Z,2.97
2018-05-09T09:49:50.902Z,2.97
2018-05-09T09:52:19.173Z,2.70
2018-05-09T09:54:47.487Z,3.10
2018-05-09T09:57:15.140Z,2.53
2018-05-09T09:59:42.784Z,3.00
2018-05-09T10:02:12.558Z,2.70
2018-05-09T10:04:40.060Z,2.57
2018-05-09T10:07:07.580Z,2.40
2018-05-09T10:09:35.115Z,2.90
2018-05-09T10:12:02.630Z,3.13
2018-05-09T10:14:30.203Z,2.53
2018-05-09T10:16:57.770Z,2.63
2018-05-09T10:19:25.284Z,2.50
2018-05-09T10:21:53.572Z,3.00
2018-05-09T10:24:21.108Z,2.77
2018-05-09T10:26:48.611Z,2.80
2018-05-09T10:29:16.149Z,3.13
2018-05-09T10:31:43.673Z,2.97
2018-05-09T10:34:11.223Z,2.93
2018-05-09T10:36:38.736Z,2.80
2018-05-09T10:39:06.326Z,2.50
2018-05-09T10:41:33.797Z,2.70
2018-05-09T10:44:01.369Z,2.50
2018-05-09T10:46:28.919Z,3.03
2018-05-09T10:48:56.442Z,3.33
2018-05-09T10:51:23.969Z,3.37
2018-05-09T10:53:51.497Z,3.77
2018-05-09T10:56:19.062Z,3.80
2018-05-09T10:58:47.363Z,3.83
2018-05-09T11:01:14.875Z,3.33
2018-05-09T11:03:42.405Z,3.50
2018-05-09T11:06:09.958Z,3.73
2018-05-09T11:08:37.472Z,4.00
2018-05-09T11:11:05.884Z,3.23
2018-05-09T11:13:33.417Z,4.07
2018-05-09T11:16:00.951Z,3.13
2018-05-09T11:18:28.501Z,3.60
2018-05-09T11:20:57.547Z,3.10
2018-05-09T11:23:25.108Z,3.37
2018-05-09T11:25:52.650Z,3.73
2018-05-09T11:28:20.160Z,3.67
2018-05-09T11:30:47.720Z,3.40
2018-05-09T11:33:15.251Z,3.47
2018-05-09T11:35:42.817Z,3.57
2018-05-09T11:38:10.348Z,3.80
2018-05-09T11:40:37.882Z,3.87
2018-05-09T11:43:05.421Z,3.67
2018-05-09T11:45:33.035Z,4.10
2018-05-09T11:48:00.570Z,5.20
2018-05-09T11:50:28.150Z,5.30
2018-05-09T11:52:55.739Z,5.77
2018-05-09T11:55:23.244Z,5.83
2018-05-09T11:57:50.784Z,6.23
2018-05-09T12:00:19.068Z,6.10
2018-05-09T12:02:46.598Z,5.57
2018-05-09T12:05:14.230Z,5.33
2018-05-09T12:07:41.758Z,5.67
2018-05-09T12:10:09.309Z,5.80
2018-05-09T12:12:36.824Z,5.90
2018-05-09T12:15:04.352Z,5.90
2018-05-09T12:17:31.892Z,5.97
2018-05-09T12:19:59.421Z,5.90
2018-05-09T12:22:27.701Z,5.40
2018-05-09T12:24:55.273Z,5.80
2018-05-09T12:27:22.807Z,5.53
2018-05-09T12:29:51.092Z,5.07
2018-05-09T12:32:18.627Z,4.43
2018-05-09T12:34:46.916Z,4.70
2018-05-09T12:37:15.208Z,4.03
2018-05-09T12:39:42.729Z,4.13
2018-05-09T12:42:11.788Z,3.33
2018-05-09T12:44:39.289Z,4.00
2018-05-09T12:47:07.560Z,4.67
2018-05-09T12:49:35.876Z,4.90
2018-05-09T12:52:03.383Z,5.20
2018-05-09T12:54:30.964Z,4.47
2018-05-09T12:56:59.257Z,4.87
2018-05-09T12:59:26.809Z,3.93
2018-05-09T13:01:54.330Z,4.30
2018-05-09T13:04:21.876Z,4.43
2018-05-09T13:06:49.405Z,4.30
2018-05-09T13:09:16.925Z,3.67
2018-05-09T13:11:45.236Z,4.20
2018-05-09T13:14:12.772Z,4.27
2018-05-09T13:16:40.324Z,4.13
2018-05-09T13:19:07.857Z,4.20
2018-05-09T13:21:36.196Z,3.90
2018-05-09T13:24:03.730Z,4.20
2018-05-09T13:26:31.265Z,4.50
2018-05-09T13:28:59.552Z,4.93
2018-05-09T13:31:27.084Z,5.57
2018-05-09T13:33:55.372Z,5.40
2018-05-09T13:36:24.797Z,4.97
2018-05-09T13:38:52.320Z,4.70
2018-05-09T13:41:20.736Z,5.03
2018-05-09T13:43:48.285Z,5.00
2018-05-09T13:46:15.942Z,5.00
2018-05-09T13:48:43.461Z,4.80
2018-05-09T13:51:10.981Z,4.77
2018-05-09T13:53:38.626Z,5.13
2018-05-09T13:56:06.173Z,4.63
2018-05-09T13:58:33.687Z,4.80
2018-05-09T14:01:01.252Z,4.93
2018-05-09T14:03:36.126Z,5.10
2018-05-09T14:06:03.640Z,4.70
2018-05-09T14:08:31.934Z,4.57
2018-05-09T14:11:00.236Z,4.50
2018-05-09T14:13:27.756Z,4.80
2018-05-09T14:15:55.307Z,4.40
2018-05-09T14:18:22.817Z,4.20
2018-05-09T14:20:50.353Z,4.10
2018-05-09T14:23:17.860Z,4.47
2018-05-09T14:25:45.419Z,4.50
2018-05-09T14:28:12.964Z,4.30
2018-05-09T14:30:40.514Z,4.53
2018-05-09T14:33:08.031Z,4.17
2018-05-09T14:35:36.329Z,3.80
2018-05-09T14:38:03.865Z,3.80
2018-05-09T14:40:32.167Z,4.30
2018-05-09T14:42:59.709Z,4.10
2018-05-09T14:45:27.235Z,4.57
2018-05-09T14:47:54.768Z,3.83
2018-05-09T14:50:22.305Z,4.20
2018-05-09T14:52:49.847Z,3.90
2018-05-09T14:55:17.385Z,3.63
2018-05-09T14:57:45.688Z,3.23
2018-05-09T15:00:13.246Z,4.13
2018-05-09T15:02:40.797Z,3.53
2018-05-09T15:05:08.361Z,3.47
2018-05-09T15:07:35.883Z,3.00
2018-05-09T15:10:04.188Z,3.50
2018-05-09T15:12:31.731Z,3.40
2018-05-09T15:14:59.252Z,3.30
2018-05-09T15:17:27.581Z,3.60
2018-05-09T15:19:55.116Z,3.43
2018-05-09T15:22:23.415Z,3.50
2018-05-09T15:24:50.956Z,3.20
2018-05-09T15:27:18.508Z,3.30
2018-05-09T15:29:46.824Z,3.67
2018-05-09T15:32:14.352Z,2.90
2018-05-09T15:34:41.995Z,3.10
2018-05-09T15:37:10.305Z,3.10
2018-05-09T15:39:37.828Z,3.08
2018-05-09T15:42:05.400Z,3.55
2018-05-09T15:44:32.924Z,3.03
2018-05-09T15:47:00.449Z,3.47
2018-05-09T15:49:27.972Z,3.33
2018-05-09T15:51:57.050Z,3.20
2018-05-09T15:54:26.802Z,3.35
2018-05-09T15:56:54.348Z,3.00
2018-05-09T15:59:21.877Z,3.10
2018-05-09T16:01:50.180Z,3.25
2018-05-09T16:04:17.789Z,3.47
2018-05-09T16:06:45.329Z,3.27
2018-05-09T16:09:12.876Z,2.53
2018-05-09T16:11:40.393Z,3.27
2018-05-09T16:14:08.072Z,3.08
2018-05-09T16:16:35.611Z,2.65
2018-05-09T16:19:03.211Z,2.67
2018-05-09T16:21:30.754Z,2.70
2018-05-09T16:23:58.390Z,3.03
2018-05-09T16:26:25.928Z,2.78
2018-05-09T16:28:54.223Z,2.78
2018-05-09T16:31:21.779Z,2.95
2018-05-09T16:33:49.290Z,3.20
2018-05-09T16:36:16.843Z,3.03
2018-05-09T16:38:44.387Z,2.90
2018-05-09T16:41:11.965Z,2.75
2018-05-09T16:43:39.500Z,3.08
2018-05-09T16:46:07.874Z,2.90
2018-05-09T16:48:35.601Z,3.60
2018-05-09T16:51:03.876Z,3.53
2018-05-09T16:53:31.414Z,3.50
2018-05-09T16:55:59.705Z,3.87
2018-05-09T16:58:28.023Z,3.57
2018-05-09T17:00:55.584Z,4.10
2018-05-09T17:03:23.104Z,3.60
2018-05-09T17:05:50.634Z,4.10
2018-05-09T17:08:18.238Z,3.97
2018-05-09T17:10:45.766Z,3.37
2018-05-09T17:13:14.136Z,4.13
2018-05-09T17:15:41.629Z,3.60
2018-05-09T17:18:09.164Z,3.83
2018-05-09T17:20:37.471Z,3.63
2018-05-09T17:23:04.998Z,3.70
2018-05-09T17:25:33.412Z,3.40
2018-05-09T17:28:00.936Z,3.70
2018-05-09T17:30:29.250Z,3.60
2018-05-09T17:32:56.784Z,3.93
2018-05-09T17:35:24.349Z,3.57
2018-05-09T17:37:51.977Z,3.70
2018-05-09T17:40:20.294Z,4.03
2018-05-09T17:42:47.849Z,3.80
2018-05-09T17:45:15.418Z,4.10
2018-05-09T17:47:43.048Z,4.10
2018-05-09T17:50:10.623Z,4.20
2018-05-09T17:52:38.264Z,4.20
2018-05-09T17:55:05.801Z,3.43
2018-05-09T17:57:34.117Z,4.30
2018-05-09T18:00:01.766Z,4.00
2018-05-09T18:02:29.350Z,4.40
2018-05-09T18:04:56.889Z,4.20
2018-05-09T18:07:24.450Z,4.67
2018-05-09T18:09:52.099Z,4.33
2018-05-09T18:12:19.650Z,4.33
2018-05-09T18:14:47.963Z,4.17
2018-05-09T18:17:15.571Z,4.33
2018-05-09T18:19:43.924Z,5.20
2018-05-09T18:22:11.460Z,4.73
2018-05-09T18:24:38.987Z,5.00
2018-05-09T18:27:06.629Z,5.00
2018-05-09T18:29:34.941Z,6.40
2018-05-09T18:32:02.523Z,6.03
2018-05-09T18:34:30.064Z,5.53
2018-05-09T18:36:57.664Z,5.37
2018-05-09T18:39:26.009Z,5.90
2018-05-09T18:41:53.577Z,5.43
2018-05-09T18:44:21.103Z,5.90
2018-05-09T18:46:48.671Z,5.87
2018-05-09T18:49:16.220Z,6.20
2018-05-09T18:51:43.759Z,5.90
2018-05-09T18:54:12.088Z,6.00
2018-05-09T18:56:41.624Z,6.37
2018-05-09T18:59:09.909Z,6.10
2018-05-09T19:01:38.213Z,6.43
2018-05-09T19:04:05.738Z,6.40
2018-05-09T19:06:34.050Z,6.70
2018-05-09T19:09:01.589Z,6.70
2018-05-09T19:11:29.240Z,6.37
2018-05-09T19:13:57.539Z,7.30
2018-05-09T19:16:25.075Z,7.97
2018-05-09T19:18:52.620Z,7.13
2018-05-09T19:21:20.938Z,7.40
2018-05-09T19:23:48.489Z,7.43
2018-05-09T19:26:16.028Z,9.70
2018-05-09T19:28:44.320Z,9.97
2018-05-09T19:31:11.887Z,10.47
2018-05-09T19:33:39.435Z,10.23
2018-05-09T19:36:07.045Z,11.27
2018-05-09T19:38:34.712Z,10.87
2018-05-09T19:41:03.276Z,8.77
2018-05-09T19:43:30.811Z,8.80
2018-05-09T19:45:58.368Z,8.17
2018-05-09T19:48:25.937Z,7.70
2018-05-09T19:50:53.481Z,7.30
2018-05-09T19:53:21.012Z,7.17
2018-05-09T19:55:48.537Z,7.87
2018-05-09T19:58:16.095Z,8.13
2018-05-09T20:00:44.424Z,10.73
2018-05-09T20:03:12.009Z,10.00
2018-05-09T20:05:39.546Z,9.50
2018-05-09T20:08:07.104Z,9.43
2018-05-09T20:10:34.692Z,8.50
2018-05-09T20:13:02.289Z,8.77
2018-05-09T20:15:30.629Z,7.87
2018-05-09T20:17:58.238Z,7.23
2018-05-09T20:20:25.819Z,7.10
2018-05-09T20:22:53.464Z,7.33
2018-05-09T20:25:22.100Z,6.60
2018-05-09T20:27:49.641Z,7.23
2018-05-09T20:30:22.949Z,7.70
2018-05-09T20:32:51.185Z,7.30
2018-05-09T20:35:18.768Z,7.50
2018-05-09T20:37:46.297Z,7.40
2018-05-09T20:40:13.830Z,8.47
2018-05-09T20:42:41.440Z,7.70
2018-05-09T20:45:08.972Z,7.10
2018-05-09T20:47:36.645Z,7.80
2018-05-09T20:50:04.314Z,7.57
2018-05-09T20:52:31.853Z,6.80
2018-05-09T20:54:59.406Z,8.77
2018-05-09T20:57:26.973Z,7.70
2018-05-09T20:59:54.500Z,7.70
2018-05-09T21:02:22.042Z,7.53
2018-05-09T21:04:50.338Z,7.53
2018-05-09T21:07:17.868Z,8.57
2018-05-09T21:09:45.413Z,7.30
2018-05-09T21:12:14.545Z,8.20
2018-05-09T21:14:42.097Z,8.57
2018-05-09T21:17:10.406Z,7.10
2018-05-09T21:19:37.955Z,7.80
2018-05-09T21:22:05.504Z,7.30
2018-05-09T21:24:33.095Z,6.77
2018-05-09T21:27:00.726Z,7.77
2018-05-09T21:29:28.298Z,7.87
2018-05-09T21:31:55.825Z,8.10
2018-05-09T21:34:23.376Z,8.33
2018-05-09T21:36:51.660Z,8.70
2018-05-09T21:39:19.189Z,7.80
2018-05-09T21:41:46.712Z,8.93
2018-05-09T21:44:14.259Z,7.87
2018-05-09T21:46:41.779Z,7.80
2018-05-09T21:49:10.075Z,8.03
2018-05-09T21:51:37.616Z,7.80
2018-05-09T21:54:05.913Z,7.83
2018-05-09T21:56:33.455Z,7.73
2018-05-09T21:59:00.995Z,8.00
2018-05-09T22:01:29.308Z,8.67
2018-05-09T22:03:56.840Z,9.60
2018-05-09T22:06:24.387Z,8.20
2018-05-09T22:08:52.698Z,9.57
2018-05-09T22:11:20.210Z,8.70
2018-05-09T22:13:47.721Z,8.40
2018-05-09T22:16:15.280Z,8.83
2018-05-09T22:18:42.796Z,9.10
2018-05-09T22:21:11.097Z,7.90
2018-05-09T22:23:38.611Z,8.43
2018-05-09T22:26:06.164Z,8.73
2018-05-09T22:28:33.782Z,7.80
2018-05-09T22:31:01.326Z,8.87
2018-05-09T22:33:28.841Z,8.60
2018-05-09T22:35:56.371Z,8.90
2018-05-09T22:38:23.888Z,9.03
2018-05-09T22:40:51.469Z,7.83
2018-05-09T22:43:19.018Z,9.20
2018-05-09T22:45:46.531Z,8.20
2018-05-09T22:48:14.068Z,8.47
2018-05-09T22:50:41.711Z,8.97
2018-05-09T22:53:09.332Z,8.93
2018-05-09T22:55:37.642Z,8.07
2018-05-09T22:58:05.184Z,8.30
2018-05-09T23:00:32.712Z,8.73
2018-05-09T23:03:01.031Z,9.33
2018-05-09T23:05:28.541Z,7.83
2018-05-09T23:07:56.831Z,8.10
2018-05-09T23:10:24.424Z,8.77
2018-05-09T23:12:52.699Z,9.80
2018-05-09T23:15:20.222Z,8.43
2018-05-09T23:17:47.777Z,8.70
2018-05-09T23:20:16.060Z,9.70
2018-05-09T23:22:43.648Z,9.40
2018-05-09T23:25:11.169Z,7.80
2018-05-09T23:27:38.755Z,8.93
2018-05-09T23:30:06.279Z,9.67
2018-05-09T23:32:33.795Z,8.57
2018-05-09T23:35:01.327Z,8.60
2018-05-09T23:37:28.981Z,9.20
2018-05-09T23:39:56.500Z,9.80
2018-05-09T23:42:24.804Z,9.07
2018-05-09T23:44:52.320Z,9.23
2018-05-09T23:47:20.636Z,8.20
2018-05-09T23:49:48.168Z,9.03
2018-05-09T23:52:16.542Z,9.43
2018-05-09T23:54:44.028Z,8.90
2018-05-09T23:57:11.566Z,9.03
2018-05-09T23:59:39.870Z,9.57
